sensor_id;sensor_type;location;lat;lon;timestamp;temperature;humidity
212;DHT22;16228;48.800;9.002;2023-07-08T00:00:22;19.10;93.10
212;DHT22;16228;48.800;9.002;2023-07-08T00:02:50;19.00;93.10
212;DHT22;16228;48.800;9.002;2023-07-08T00:05:19;19.00;93.30
212;DHT22;16228;48.800;9.002;2023-07-08T00:07:47;18.90;93.90
212;DHT22;16228;48.800;9.002;2023-07-08T00:10:16;18.80;94.70
212;DHT22;16228;48.800;9.002;2023-07-08T00:12:46;18.70;95.80
212;DHT22;16228;48.800;9.002;2023-07-08T00:15:14;18.70;95.50
212;DHT22;16228;48.800;9.002;2023-07-08T00:17:43;18.70;94.50
212;DHT22;16228;48.800;9.002;2023-07-08T00:20:19;18.70;94.60
212;DHT22;16228;48.800;9.002;2023-07-08T00:22:46;18.60;95.70
212;DHT22;16228;48.800;9.002;2023-07-08T00:25:16;18.60;95.70
212;DHT22;16228;48.800;9.002;2023-07-08T00:27:43;18.50;96.40
212;DHT22;16228;48.800;9.002;2023-07-08T00:30:21;18.40;96.60
212;DHT22;16228;48.800;9.002;2023-07-08T00:32:50;18.40;96.60
212;DHT22;16228;48.800;9.002;2023-07-08T00:35:21;18.30;96.20
212;DHT22;16228;48.800;9.002;2023-07-08T00:37:49;18.30;96.90
212;DHT22;16228;48.800;9.002;2023-07-08T00:40:20;18.20;96.90
212;DHT22;16228;48.800;9.002;2023-07-08T00:42:47;18.20;96.90
212;DHT22;16228;48.800;9.002;2023-07-08T00:45:32;18.20;96.90
212;DHT22;16228;48.800;9.002;2023-07-08T00:48:07;18.10;96.90
212;DHT22;16228;48.800;9.002;2023-07-08T00:50:35;18.10;96.90
212;DHT22;16228;48.800;9.002;2023-07-08T00:53:22;18.00;96.90
212;DHT22;16228;48.800;9.002;2023-07-08T00:55:49;17.90;96.90
212;DHT22;16228;48.800;9.002;2023-07-08T00:58:19;17.90;96.90
212;DHT22;16228;48.800;9.002;2023-07-08T01:00:48;17.80;96.90
212;DHT22;16228;48.800;9.002;2023-07-08T01:03:18;17.80;96.90
212;DHT22;16228;48.800;9.002;2023-07-08T01:05:46;17.70;96.90
212;DHT22;16228;48.800;9.002;2023-07-08T01:08:14;17.70;96.90
212;DHT22;16228;48.800;9.002;2023-07-08T01:10:44;17.70;96.90
212;DHT22;16228;48.800;9.002;2023-07-08T01:13:15;17.60;96.90
212;DHT22;16228;48.800;9.002;2023-07-08T01:15:45;17.50;96.90
212;DHT22;16228;48.800;9.002;2023-07-08T01:18:15;17.40;96.90
212;DHT22;16228;48.800;9.002;2023-07-08T01:20:45;17.40;96.90
212;DHT22;16228;48.800;9.002;2023-07-08T01:23:14;17.30;96.90
212;DHT22;16228;48.800;9.002;2023-07-08T01:25:42;17.20;96.90
212;DHT22;16228;48.800;9.002;2023-07-08T01:28:11;17.20;96.90
212;DHT22;16228;48.800;9.002;2023-07-08T01:30:40;17.20;96.90
212;DHT22;16228;48.800;9.002;2023-07-08T01:33:16;17.10;96.90
212;DHT22;16228;48.800;9.002;2023-07-08T01:35:45;17.10;96.90
212;DHT22;16228;48.800;9.002;2023-07-08T01:38:18;17.00;96.90
212;DHT22;16228;48.800;9.002;2023-07-08T01:40:49;16.90;96.90
212;DHT22;16228;48.800;9.002;2023-07-08T01:43:16;16.90;96.90
212;DHT22;16228;48.800;9.002;2023-07-08T01:45:43;16.80;96.90
212;DHT22;16228;48.800;9.002;2023-07-08T01:48:13;16.70;96.90
212;DHT22;16228;48.800;9.002;2023-07-08T01:50:43;16.70;96.90
212;DHT22;16228;48.800;9.002;2023-07-08T01:53:14;16.70;96.90
212;DHT22;16228;48.800;9.002;2023-07-08T01:55:42;16.60;96.90
212;DHT22;16228;48.800;9.002;2023-07-08T01:58:09;16.60;96.90
212;DHT22;16228;48.800;9.002;2023-07-08T02:00:36;16.60;96.90
212;DHT22;16228;48.800;9.002;2023-07-08T02:03:03;16.50;96.90
212;DHT22;16228;48.800;9.002;2023-07-08T02:05:30;16.50;96.90
212;DHT22;16228;48.800;9.002;2023-07-08T02:07:57;16.40;96.90
212;DHT22;16228;48.800;9.002;2023-07-08T02:10:24;16.30;96.90
212;DHT22;16228;48.800;9.002;2023-07-08T02:12:53;16.30;96.90
212;DHT22;16228;48.800;9.002;2023-07-08T02:15:20;16.30;96.90
212;DHT22;16228;48.800;9.002;2023-07-08T02:17:47;16.20;96.90
212;DHT22;16228;48.800;9.002;2023-07-08T02:20:15;16.20;96.90
212;DHT22;16228;48.800;9.002;2023-07-08T02:22:42;16.20;96.90
212;DHT22;16228;48.800;9.002;2023-07-08T02:25:09;16.20;96.90
212;DHT22;16228;48.800;9.002;2023-07-08T02:27:36;16.20;96.90
212;DHT22;16228;48.800;9.002;2023-07-08T02:30:06;16.20;96.90
212;DHT22;16228;48.800;9.002;2023-07-08T02:32:33;16.30;96.90
212;DHT22;16228;48.800;9.002;2023-07-08T02:35:00;16.30;96.90
212;DHT22;16228;48.800;9.002;2023-07-08T02:37:27;16.40;96.90
212;DHT22;16228;48.800;9.002;2023-07-08T02:39:53;16.40;96.90
212;DHT22;16228;48.800;9.002;2023-07-08T02:42:20;16.50;96.90
212;DHT22;16228;48.800;9.002;2023-07-08T02:44:47;16.50;96.90
212;DHT22;16228;48.800;9.002;2023-07-08T02:47:16;16.60;96.90
212;DHT22;16228;48.800;9.002;2023-07-08T02:49:43;16.70;96.90
212;DHT22;16228;48.800;9.002;2023-07-08T02:52:10;16.70;96.90
212;DHT22;16228;48.800;9.002;2023-07-08T02:54:37;16.70;96.90
212;DHT22;16228;48.800;9.002;2023-07-08T02:57:04;16.70;96.90
212;DHT22;16228;48.800;9.002;2023-07-08T02:59:31;16.70;96.90
212;DHT22;16228;48.800;9.002;2023-07-08T03:01:58;16.70;96.90
212;DHT22;16228;48.800;9.002;2023-07-08T03:04:26;16.70;96.90
212;DHT22;16228;48.800;9.002;2023-07-08T03:06:53;16.70;96.90
212;DHT22;16228;48.800;9.002;2023-07-08T03:09:20;16.60;96.90
212;DHT22;16228;48.800;9.002;2023-07-08T03:11:47;16.60;96.90
212;DHT22;16228;48.800;9.002;2023-07-08T03:14:14;16.50;96.90
212;DHT22;16228;48.800;9.002;2023-07-08T03:16:41;16.50;96.90
212;DHT22;16228;48.800;9.002;2023-07-08T03:19:10;16.50;96.90
212;DHT22;16228;48.800;9.002;2023-07-08T03:21:41;16.50;96.90
212;DHT22;16228;48.800;9.002;2023-07-08T03:24:10;16.50;96.90
212;DHT22;16228;48.800;9.002;2023-07-08T03:26:37;16.50;96.90
212;DHT22;16228;48.800;9.002;2023-07-08T03:29:05;16.50;96.90
212;DHT22;16228;48.800;9.002;2023-07-08T03:31:32;16.50;96.90
212;DHT22;16228;48.800;9.002;2023-07-08T03:33:59;16.50;96.90
212;DHT22;16228;48.800;9.002;2023-07-08T03:36:26;16.50;96.90
212;DHT22;16228;48.800;9.002;2023-07-08T03:38:56;16.50;96.90
212;DHT22;16228;48.800;9.002;2023-07-08T03:41:23;16.40;96.90
212;DHT22;16228;48.800;9.002;2023-07-08T03:43:50;16.40;96.90
212;DHT22;16228;48.800;9.002;2023-07-08T03:46:19;16.40;96.90
212;DHT22;16228;48.800;9.002;2023-07-08T03:48:46;16.30;96.90
212;DHT22;16228;48.800;9.002;2023-07-08T03:51:19;16.30;96.90
212;DHT22;16228;48.800;9.002;2023-07-08T03:53:47;16.30;96.90
212;DHT22;16228;48.800;9.002;2023-07-08T03:56:16;16.20;96.90
212;DHT22;16228;48.800;9.002;2023-07-08T03:58:43;16.20;96.90
212;DHT22;16228;48.800;9.002;2023-07-08T04:01:14;16.20;96.90
212;DHT22;16228;48.800;9.002;2023-07-08T04:03:42;16.20;96.90
212;DHT22;16228;48.800;9.002;2023-07-08T04:06:09;16.20;96.90
212;DHT22;16228;48.800;9.002;2023-07-08T04:08:36;16.30;96.90
212;DHT22;16228;48.800;9.002;2023-07-08T04:11:04;16.30;96.90
212;DHT22;16228;48.800;9.002;2023-07-08T04:13:32;16.40;96.90
212;DHT22;16228;48.800;9.002;2023-07-08T04:16:02;16.50;96.90
212;DHT22;16228;48.800;9.002;2023-07-08T04:18:29;16.60;96.90
212;DHT22;16228;48.800;9.002;2023-07-08T04:20:56;16.80;96.90
212;DHT22;16228;48.800;9.002;2023-07-08T04:23:25;17.00;96.90
212;DHT22;16228;48.800;9.002;2023-07-08T04:25:55;17.00;96.90
212;DHT22;16228;48.800;9.002;2023-07-08T04:28:23;17.20;96.90
212;DHT22;16228;48.800;9.002;2023-07-08T04:30:51;17.40;96.90
212;DHT22;16228;48.800;9.002;2023-07-08T04:33:18;17.50;96.90
212;DHT22;16228;48.800;9.002;2023-07-08T04:35:45;17.60;96.90
212;DHT22;16228;48.800;9.002;2023-07-08T04:38:17;17.70;96.90
212;DHT22;16228;48.800;9.002;2023-07-08T04:40:44;17.90;96.90
212;DHT22;16228;48.800;9.002;2023-07-08T04:43:11;18.10;96.90
212;DHT22;16228;48.800;9.002;2023-07-08T04:45:39;18.10;96.90
212;DHT22;16228;48.800;9.002;2023-07-08T04:48:12;18.10;96.90
212;DHT22;16228;48.800;9.002;2023-07-08T04:50:40;18.20;96.90
212;DHT22;16228;48.800;9.002;2023-07-08T04:53:08;18.30;96.90
212;DHT22;16228;48.800;9.002;2023-07-08T04:55:35;18.30;96.90
212;DHT22;16228;48.800;9.002;2023-07-08T04:58:03;18.30;96.90
212;DHT22;16228;48.800;9.002;2023-07-08T05:00:30;18.30;96.90
212;DHT22;16228;48.800;9.002;2023-07-08T05:02:57;18.20;96.90
212;DHT22;16228;48.800;9.002;2023-07-08T05:05:25;18.20;96.90
212;DHT22;16228;48.800;9.002;2023-07-08T05:07:52;18.20;96.90
212;DHT22;16228;48.800;9.002;2023-07-08T05:10:19;18.20;96.90
212;DHT22;16228;48.800;9.002;2023-07-08T05:12:47;18.30;96.90
212;DHT22;16228;48.800;9.002;2023-07-08T05:15:14;18.40;96.90
212;DHT22;16228;48.800;9.002;2023-07-08T05:17:42;18.60;96.90
212;DHT22;16228;48.800;9.002;2023-07-08T05:20:11;18.90;96.90
212;DHT22;16228;48.800;9.002;2023-07-08T05:22:40;19.10;96.90
212;DHT22;16228;48.800;9.002;2023-07-08T05:25:08;19.40;96.90
212;DHT22;16228;48.800;9.002;2023-07-08T05:27:35;19.70;96.90
212;DHT22;16228;48.800;9.002;2023-07-08T05:30:03;20.20;96.90
212;DHT22;16228;48.800;9.002;2023-07-08T05:32:30;20.20;96.90
212;DHT22;16228;48.800;9.002;2023-07-08T05:34:58;20.60;96.90
212;DHT22;16228;48.800;9.002;2023-07-08T05:37:25;20.60;96.90
212;DHT22;16228;48.800;9.002;2023-07-08T05:39:55;20.80;96.90
212;DHT22;16228;48.800;9.002;2023-07-08T05:42:26;20.90;96.90
212;DHT22;16228;48.800;9.002;2023-07-08T05:44:53;21.00;96.90
212;DHT22;16228;48.800;9.002;2023-07-08T05:47:20;21.20;96.90
212;DHT22;16228;48.800;9.002;2023-07-08T05:49:48;21.40;95.20
212;DHT22;16228;48.800;9.002;2023-07-08T05:52:15;21.50;96.20
212;DHT22;16228;48.800;9.002;2023-07-08T05:54:42;21.80;96.90
212;DHT22;16228;48.800;9.002;2023-07-08T05:57:11;22.00;96.90
212;DHT22;16228;48.800;9.002;2023-07-08T05:59:38;22.40;96.90
212;DHT22;16228;48.800;9.002;2023-07-08T06:02:06;22.50;96.90
212;DHT22;16228;48.800;9.002;2023-07-08T06:04:33;22.70;94.50
212;DHT22;16228;48.800;9.002;2023-07-08T06:07:00;22.90;92.40
212;DHT22;16228;48.800;9.002;2023-07-08T06:09:27;23.30;91.50
212;DHT22;16228;48.800;9.002;2023-07-08T06:11:54;23.40;93.00
212;DHT22;16228;48.800;9.002;2023-07-08T06:14:22;23.60;86.60
212;DHT22;16228;48.800;9.002;2023-07-08T06:16:50;23.90;86.60
212;DHT22;16228;48.800;9.002;2023-07-08T06:19:17;24.30;85.70
212;DHT22;16228;48.800;9.002;2023-07-08T06:21:44;24.30;86.10
212;DHT22;16228;48.800;9.002;2023-07-08T06:24:11;24.60;85.60
212;DHT22;16228;48.800;9.002;2023-07-08T06:26:38;24.70;81.20
212;DHT22;16228;48.800;9.002;2023-07-08T06:29:05;25.20;80.10
212;DHT22;16228;48.800;9.002;2023-07-08T06:31:33;25.20;80.10
212;DHT22;16228;48.800;9.002;2023-07-08T06:34:00;25.50;80.20
212;DHT22;16228;48.800;9.002;2023-07-08T06:36:27;25.80;80.80
212;DHT22;16228;48.800;9.002;2023-07-08T06:38:54;26.40;81.90
212;DHT22;16228;48.800;9.002;2023-07-08T06:41:21;26.50;81.80
212;DHT22;16228;48.800;9.002;2023-07-08T06:43:48;26.80;81.70
212;DHT22;16228;48.800;9.002;2023-07-08T06:46:16;27.00;78.00
212;DHT22;16228;48.800;9.002;2023-07-08T06:48:45;27.60;77.80
212;DHT22;16228;48.800;9.002;2023-07-08T06:51:13;27.60;77.80
212;DHT22;16228;48.800;9.002;2023-07-08T06:53:39;27.70;77.10
212;DHT22;16228;48.800;9.002;2023-07-08T06:56:06;27.80;75.40
212;DHT22;16228;48.800;9.002;2023-07-08T06:58:34;27.80;76.90
212;DHT22;16228;48.800;9.002;2023-07-08T07:01:01;27.60;76.60
212;DHT22;16228;48.800;9.002;2023-07-08T07:03:28;27.40;79.10
212;DHT22;16228;48.800;9.002;2023-07-08T07:05:56;27.20;76.10
212;DHT22;16228;48.800;9.002;2023-07-08T07:08:23;27.10;77.70
212;DHT22;16228;48.800;9.002;2023-07-08T07:10:50;27.10;76.90
212;DHT22;16228;48.800;9.002;2023-07-08T07:13:17;27.00;77.20
212;DHT22;16228;48.800;9.002;2023-07-08T07:15:44;27.00;78.30
212;DHT22;16228;48.800;9.002;2023-07-08T07:18:11;26.80;78.50
212;DHT22;16228;48.800;9.002;2023-07-08T07:20:38;26.70;78.40
212;DHT22;16228;48.800;9.002;2023-07-08T07:23:06;26.80;79.10
212;DHT22;16228;48.800;9.002;2023-07-08T07:25:36;26.80;77.50
212;DHT22;16228;48.800;9.002;2023-07-08T07:28:06;26.90;77.90
212;DHT22;16228;48.800;9.002;2023-07-08T07:30:33;26.90;79.30
212;DHT22;16228;48.800;9.002;2023-07-08T07:33:00;27.00;78.60
212;DHT22;16228;48.800;9.002;2023-07-08T07:35:27;27.10;79.80
212;DHT22;16228;48.800;9.002;2023-07-08T07:37:54;27.10;79.40
212;DHT22;16228;48.800;9.002;2023-07-08T07:40:23;27.30;80.20
212;DHT22;16228;48.800;9.002;2023-07-08T07:42:50;27.60;87.20
212;DHT22;16228;48.800;9.002;2023-07-08T07:45:17;28.30;80.20
212;DHT22;16228;48.800;9.002;2023-07-08T07:47:45;28.90;78.10
212;DHT22;16228;48.800;9.002;2023-07-08T07:50:12;29.50;77.60
212;DHT22;16228;48.800;9.002;2023-07-08T07:52:39;30.00;76.20
212;DHT22;16228;48.800;9.002;2023-07-08T07:55:07;31.30;77.40
212;DHT22;16228;48.800;9.002;2023-07-08T07:57:36;32.70;68.70
212;DHT22;16228;48.800;9.002;2023-07-08T08:00:04;33.70;69.60
212;DHT22;16228;48.800;9.002;2023-07-08T08:02:31;33.80;67.40
212;DHT22;16228;48.800;9.002;2023-07-08T08:04:58;33.40;68.20
212;DHT22;16228;48.800;9.002;2023-07-08T08:07:25;33.00;64.40
212;DHT22;16228;48.800;9.002;2023-07-08T08:09:52;34.00;64.40
212;DHT22;16228;48.800;9.002;2023-07-08T08:12:19;34.60;68.50
212;DHT22;16228;48.800;9.002;2023-07-08T08:14:49;35.00;63.30
212;DHT22;16228;48.800;9.002;2023-07-08T08:17:16;34.70;64.40
212;DHT22;16228;48.800;9.002;2023-07-08T08:19:43;34.50;62.70
212;DHT22;16228;48.800;9.002;2023-07-08T08:22:10;34.60;66.10
212;DHT22;16228;48.800;9.002;2023-07-08T08:24:37;35.20;66.60
212;DHT22;16228;48.800;9.002;2023-07-08T08:27:04;35.70;60.90
212;DHT22;16228;48.800;9.002;2023-07-08T08:29:32;37.10;59.40
212;DHT22;16228;48.800;9.002;2023-07-08T08:32:00;37.40;58.60
212;DHT22;16228;48.800;9.002;2023-07-08T08:34:27;38.00;63.40
212;DHT22;16228;48.800;9.002;2023-07-08T08:36:54;39.00;58.20
212;DHT22;16228;48.800;9.002;2023-07-08T08:39:21;39.70;58.50
212;DHT22;16228;48.800;9.002;2023-07-08T08:41:50;40.60;56.30
212;DHT22;16228;48.800;9.002;2023-07-08T08:44:24;40.90;53.90
212;DHT22;16228;48.800;9.002;2023-07-08T08:46:56;40.60;54.60
212;DHT22;16228;48.800;9.002;2023-07-08T08:49:32;40.60;54.30
212;DHT22;16228;48.800;9.002;2023-07-08T08:52:03;41.10;54.40
212;DHT22;16228;48.800;9.002;2023-07-08T08:54:30;41.70;54.20
212;DHT22;16228;48.800;9.002;2023-07-08T08:57:02;42.30;49.80
212;DHT22;16228;48.800;9.002;2023-07-08T08:59:38;42.50;46.40
212;DHT22;16228;48.800;9.002;2023-07-08T09:02:23;41.60;48.30
212;DHT22;16228;48.800;9.002;2023-07-08T09:04:53;39.80;48.70
212;DHT22;16228;48.800;9.002;2023-07-08T09:07:21;38.50;51.00
212;DHT22;16228;48.800;9.002;2023-07-08T09:09:54;37.50;54.90
212;DHT22;16228;48.800;9.002;2023-07-08T09:12:26;37.20;54.00
212;DHT22;16228;48.800;9.002;2023-07-08T09:14:55;37.30;53.70
212;DHT22;16228;48.800;9.002;2023-07-08T09:17:26;37.30;53.70
212;DHT22;16228;48.800;9.002;2023-07-08T09:20:05;37.60;52.80
212;DHT22;16228;48.800;9.002;2023-07-08T09:22:36;37.90;52.10
212;DHT22;16228;48.800;9.002;2023-07-08T09:25:23;38.30;56.00
212;DHT22;16228;48.800;9.002;2023-07-08T09:27:51;39.50;55.00
212;DHT22;16228;48.800;9.002;2023-07-08T09:30:20;40.50;52.10
212;DHT22;16228;48.800;9.002;2023-07-08T09:32:48;41.00;50.70
212;DHT22;16228;48.800;9.002;2023-07-08T09:35:19;41.60;49.20
212;DHT22;16228;48.800;9.002;2023-07-08T09:37:48;42.10;50.10
212;DHT22;16228;48.800;9.002;2023-07-08T09:40:19;42.30;49.70
212;DHT22;16228;48.800;9.002;2023-07-08T09:42:50;42.40;48.70
212;DHT22;16228;48.800;9.002;2023-07-08T09:45:19;42.50;50.90
212;DHT22;16228;48.800;9.002;2023-07-08T09:47:47;42.70;48.90
212;DHT22;16228;48.800;9.002;2023-07-08T09:50:22;43.00;47.20
212;DHT22;16228;48.800;9.002;2023-07-08T09:52:51;42.80;47.70
212;DHT22;16228;48.800;9.002;2023-07-08T09:55:18;43.00;50.50
212;DHT22;16228;48.800;9.002;2023-07-08T09:57:47;43.30;46.40
212;DHT22;16228;48.800;9.002;2023-07-08T10:00:17;43.60;48.80
212;DHT22;16228;48.800;9.002;2023-07-08T10:02:46;43.30;48.40
212;DHT22;16228;48.800;9.002;2023-07-08T10:05:20;43.50;50.50
212;DHT22;16228;48.800;9.002;2023-07-08T10:07:52;43.50;48.90
212;DHT22;16228;48.800;9.002;2023-07-08T10:10:26;43.20;46.50
212;DHT22;16228;48.800;9.002;2023-07-08T10:12:57;43.00;45.90
212;DHT22;16228;48.800;9.002;2023-07-08T10:15:28;42.80;47.30
212;DHT22;16228;48.800;9.002;2023-07-08T10:17:56;42.60;46.60
212;DHT22;16228;48.800;9.002;2023-07-08T10:20:33;42.40;46.80
212;DHT22;16228;48.800;9.002;2023-07-08T10:23:11;42.30;49.60
212;DHT22;16228;48.800;9.002;2023-07-08T10:25:46;42.80;49.50
212;DHT22;16228;48.800;9.002;2023-07-08T10:28:27;43.50;46.60
212;DHT22;16228;48.800;9.002;2023-07-08T10:31:07;43.80;47.40
212;DHT22;16228;48.800;9.002;2023-07-08T10:34:13;44.00;48.00
212;DHT22;16228;48.800;9.002;2023-07-08T10:36:50;43.90;45.40
212;DHT22;16228;48.800;9.002;2023-07-08T10:39:43;44.10;46.80
212;DHT22;16228;48.800;9.002;2023-07-08T10:42:19;44.30;46.60
212;DHT22;16228;48.800;9.002;2023-07-08T10:44:54;44.50;46.40
212;DHT22;16228;48.800;9.002;2023-07-08T10:47:36;45.00;45.80
212;DHT22;16228;48.800;9.002;2023-07-08T10:50:39;45.50;44.80
212;DHT22;16228;48.800;9.002;2023-07-08T10:53:30;45.10;44.50
212;DHT22;16228;48.800;9.002;2023-07-08T10:56:00;45.30;45.00
212;DHT22;16228;48.800;9.002;2023-07-08T10:58:43;45.20;44.90
212;DHT22;16228;48.800;9.002;2023-07-08T11:01:27;44.50;45.20
212;DHT22;16228;48.800;9.002;2023-07-08T11:04:08;44.40;47.40
212;DHT22;16228;48.800;9.002;2023-07-08T11:06:44;44.30;44.40
212;DHT22;16228;48.800;9.002;2023-07-08T11:09:19;44.30;46.60
212;DHT22;16228;48.800;9.002;2023-07-08T11:11:52;44.60;46.30
212;DHT22;16228;48.800;9.002;2023-07-08T11:14:23;45.10;45.90
212;DHT22;16228;48.800;9.002;2023-07-08T11:16:59;45.20;45.80
212;DHT22;16228;48.800;9.002;2023-07-08T11:19:34;45.40;46.60
212;DHT22;16228;48.800;9.002;2023-07-08T11:22:07;44.80;42.80
212;DHT22;16228;48.800;9.002;2023-07-08T11:24:40;44.00;47.50
212;DHT22;16228;48.800;9.002;2023-07-08T11:27:15;44.40;47.60
212;DHT22;16228;48.800;9.002;2023-07-08T11:29:47;44.80;46.60
212;DHT22;16228;48.800;9.002;2023-07-08T11:32:17;44.30;44.10
212;DHT22;16228;48.800;9.002;2023-07-08T11:34:49;43.90;45.00
212;DHT22;16228;48.800;9.002;2023-07-08T11:37:18;43.80;42.90
212;DHT22;16228;48.800;9.002;2023-07-08T11:39:53;43.80;43.90
212;DHT22;16228;48.800;9.002;2023-07-08T11:42:23;43.90;46.40
212;DHT22;16228;48.800;9.002;2023-07-08T11:44:52;43.60;48.60
212;DHT22;16228;48.800;9.002;2023-07-08T11:47:25;43.80;48.50
212;DHT22;16228;48.800;9.002;2023-07-08T11:49:53;44.10;47.50
212;DHT22;16228;48.800;9.002;2023-07-08T11:52:22;44.00;46.50
212;DHT22;16228;48.800;9.002;2023-07-08T11:55:00;44.30;46.90
212;DHT22;16228;48.800;9.002;2023-07-08T11:57:30;44.40;47.30
212;DHT22;16228;48.800;9.002;2023-07-08T12:00:16;44.50;45.90
212;DHT22;16228;48.800;9.002;2023-07-08T12:02:54;44.30;48.20
212;DHT22;16228;48.800;9.002;2023-07-08T12:05:39;44.80;45.70
212;DHT22;16228;48.800;9.002;2023-07-08T12:08:12;45.10;46.10
212;DHT22;16228;48.800;9.002;2023-07-08T12:10:46;45.00;43.50
212;DHT22;16228;48.800;9.002;2023-07-08T12:13:15;44.50;42.70
212;DHT22;16228;48.800;9.002;2023-07-08T12:15:42;43.30;45.90
212;DHT22;16228;48.800;9.002;2023-07-08T12:18:14;41.60;46.50
212;DHT22;16228;48.800;9.002;2023-07-08T12:20:44;40.80;46.70
212;DHT22;16228;48.800;9.002;2023-07-08T12:23:14;41.40;47.00
212;DHT22;16228;48.800;9.002;2023-07-08T12:25:43;42.20;50.30
212;DHT22;16228;48.800;9.002;2023-07-08T12:28:11;43.10;50.60
212;DHT22;16228;48.800;9.002;2023-07-08T12:30:39;44.30;47.30
212;DHT22;16228;48.800;9.002;2023-07-08T12:33:12;44.70;45.20
212;DHT22;16228;48.800;9.002;2023-07-08T12:35:41;44.90;44.30
212;DHT22;16228;48.800;9.002;2023-07-08T12:38:18;45.00;45.00
212;DHT22;16228;48.800;9.002;2023-07-08T12:40:47;45.20;43.90
212;DHT22;16228;48.800;9.002;2023-07-08T12:43:14;44.90;45.50
212;DHT22;16228;48.800;9.002;2023-07-08T12:45:42;44.80;44.70
212;DHT22;16228;48.800;9.002;2023-07-08T12:48:09;44.60;45.30
212;DHT22;16228;48.800;9.002;2023-07-08T12:50:36;43.80;45.20
212;DHT22;16228;48.800;9.002;2023-07-08T12:53:05;43.90;47.50
212;DHT22;16228;48.800;9.002;2023-07-08T12:55:36;44.10;46.00
212;DHT22;16228;48.800;9.002;2023-07-08T12:58:05;44.40;45.10
212;DHT22;16228;48.800;9.002;2023-07-08T13:00:39;43.90;46.20
212;DHT22;16228;48.800;9.002;2023-07-08T13:03:12;43.80;45.30
212;DHT22;16228;48.800;9.002;2023-07-08T13:05:41;42.90;46.30
212;DHT22;16228;48.800;9.002;2023-07-08T13:08:11;41.70;47.90
212;DHT22;16228;48.800;9.002;2023-07-08T13:10:39;41.80;48.20
212;DHT22;16228;48.800;9.002;2023-07-08T13:13:12;41.80;46.90
212;DHT22;16228;48.800;9.002;2023-07-08T13:15:41;40.80;48.00
212;DHT22;16228;48.800;9.002;2023-07-08T13:18:14;40.70;52.30
212;DHT22;16228;48.800;9.002;2023-07-08T13:20:43;41.60;51.00
212;DHT22;16228;48.800;9.002;2023-07-08T13:23:10;42.70;46.80
212;DHT22;16228;48.800;9.002;2023-07-08T13:25:38;43.60;46.40
212;DHT22;16228;48.800;9.002;2023-07-08T13:28:17;43.80;45.60
212;DHT22;16228;48.800;9.002;2023-07-08T13:30:52;44.70;46.70
212;DHT22;16228;48.800;9.002;2023-07-08T13:33:20;44.00;44.90
212;DHT22;16228;48.800;9.002;2023-07-08T13:35:48;42.80;47.30
212;DHT22;16228;48.800;9.002;2023-07-08T13:38:18;42.40;48.40
212;DHT22;16228;48.800;9.002;2023-07-08T13:40:53;42.40;49.70
212;DHT22;16228;48.800;9.002;2023-07-08T13:43:25;42.80;48.90
212;DHT22;16228;48.800;9.002;2023-07-08T13:45:52;43.00;46.70
212;DHT22;16228;48.800;9.002;2023-07-08T13:48:24;42.60;49.10
212;DHT22;16228;48.800;9.002;2023-07-08T13:50:57;42.20;47.50
212;DHT22;16228;48.800;9.002;2023-07-08T13:53:26;41.70;49.00
212;DHT22;16228;48.800;9.002;2023-07-08T13:55:58;41.10;50.90
212;DHT22;16228;48.800;9.002;2023-07-08T13:58:29;40.20;49.40
212;DHT22;16228;48.800;9.002;2023-07-08T14:00:57;39.00;53.30
212;DHT22;16228;48.800;9.002;2023-07-08T14:03:24;38.20;52.10
212;DHT22;16228;48.800;9.002;2023-07-08T14:05:51;37.50;55.40
212;DHT22;16228;48.800;9.002;2023-07-08T14:08:18;36.60;57.30
212;DHT22;16228;48.800;9.002;2023-07-08T14:10:47;35.90;56.70
212;DHT22;16228;48.800;9.002;2023-07-08T14:13:15;35.50;58.20
212;DHT22;16228;48.800;9.002;2023-07-08T14:15:45;35.20;59.70
212;DHT22;16228;48.800;9.002;2023-07-08T14:18:12;34.90;60.60
212;DHT22;16228;48.800;9.002;2023-07-08T14:20:40;34.70;59.00
212;DHT22;16228;48.800;9.002;2023-07-08T14:23:09;34.60;62.50
212;DHT22;16228;48.800;9.002;2023-07-08T14:25:36;34.60;58.10
212;DHT22;16228;48.800;9.002;2023-07-08T14:28:03;34.60;60.60
212;DHT22;16228;48.800;9.002;2023-07-08T14:30:32;34.50;60.60
212;DHT22;16228;48.800;9.002;2023-07-08T14:33:01;34.40;59.90
212;DHT22;16228;48.800;9.002;2023-07-08T14:35:29;34.10;59.60
212;DHT22;16228;48.800;9.002;2023-07-08T14:37:56;33.80;60.20
212;DHT22;16228;48.800;9.002;2023-07-08T14:40:26;33.40;60.20
212;DHT22;16228;48.800;9.002;2023-07-08T14:42:59;33.00;60.80
212;DHT22;16228;48.800;9.002;2023-07-08T14:45:28;32.60;61.40
212;DHT22;16228;48.800;9.002;2023-07-08T14:47:56;32.80;62.70
212;DHT22;16228;48.800;9.002;2023-07-08T14:50:24;32.90;60.50
212;DHT22;16228;48.800;9.002;2023-07-08T14:52:55;33.10;61.40
212;DHT22;16228;48.800;9.002;2023-07-08T14:55:22;33.30;60.00
212;DHT22;16228;48.800;9.002;2023-07-08T14:57:49;33.50;60.30
212;DHT22;16228;48.800;9.002;2023-07-08T15:00:17;33.70;60.30
212;DHT22;16228;48.800;9.002;2023-07-08T15:02:46;33.90;60.30
212;DHT22;16228;48.800;9.002;2023-07-08T15:05:17;34.00;58.90
212;DHT22;16228;48.800;9.002;2023-07-08T15:07:57;34.10;59.00
212;DHT22;16228;48.800;9.002;2023-07-08T15:10:30;34.10;59.10
212;DHT22;16228;48.800;9.002;2023-07-08T15:12:59;34.10;58.80
212;DHT22;16228;48.800;9.002;2023-07-08T15:15:43;34.00;58.10
212;DHT22;16228;48.800;9.002;2023-07-08T15:18:20;33.90;58.10
212;DHT22;16228;48.800;9.002;2023-07-08T15:21:06;34.00;59.70
212;DHT22;16228;48.800;9.002;2023-07-08T15:23:47;34.10;59.80
212;DHT22;16228;48.800;9.002;2023-07-08T15:26:48;34.20;61.90
212;DHT22;16228;48.800;9.002;2023-07-08T15:29:25;34.10;56.60
212;DHT22;16228;48.800;9.002;2023-07-08T15:35:11;33.80;58.00
212;DHT22;16228;48.800;9.002;2023-07-08T15:37:44;33.80;60.70
212;DHT22;16228;48.800;9.002;2023-07-08T15:40:18;33.80;59.60
212;DHT22;16228;48.800;9.002;2023-07-08T15:43:00;33.70;59.60
212;DHT22;16228;48.800;9.002;2023-07-08T15:45:32;33.60;60.00
212;DHT22;16228;48.800;9.002;2023-07-08T15:48:10;33.40;57.40
212;DHT22;16228;48.800;9.002;2023-07-08T15:50:42;33.40;59.90
212;DHT22;16228;48.800;9.002;2023-07-08T15:53:17;33.40;59.90
212;DHT22;16228;48.800;9.002;2023-07-08T15:55:47;33.40;58.70
212;DHT22;16228;48.800;9.002;2023-07-08T15:58:23;33.30;59.10
212;DHT22;16228;48.800;9.002;2023-07-08T16:00:59;33.30;61.50
212;DHT22;16228;48.800;9.002;2023-07-08T16:03:34;33.20;62.60
212;DHT22;16228;48.800;9.002;2023-07-08T16:06:07;33.10;59.80
212;DHT22;16228;48.800;9.002;2023-07-08T16:08:34;33.00;60.60
212;DHT22;16228;48.800;9.002;2023-07-08T16:11:05;32.90;60.20
212;DHT22;16228;48.800;9.002;2023-07-08T16:13:34;32.80;60.40
212;DHT22;16228;48.800;9.002;2023-07-08T16:16:04;32.60;60.30
212;DHT22;16228;48.800;9.002;2023-07-08T16:18:32;32.50;61.80
212;DHT22;16228;48.800;9.002;2023-07-08T16:20:59;32.50;61.60
212;DHT22;16228;48.800;9.002;2023-07-08T16:23:26;32.40;62.60